Flugplatz Coleman (ETOR)

Hier findest Du alle Informationen zum Flugplatz Coleman (ETOR).

Informationen für Piloten zum Flugplatz Coleman

Hier findest Du alle relevanten Informationen, die Du als Pilot benötigst, um Coleman anzufliegen.

Flugplatz: Coleman ICAO-Code: ETOR
Frequenz Turm: - GAFOR Gebiet: -
Frequenz Ground: - Mogas: nein
Platzrunde: - Landegebühr: -
Platzhöhe: Sunrise: 04:25 Uhr UTC
Pisten: Sunset: 18:25 Uhr UTC

Flugwetter am Flugplatz Coleman

Die METAR Information stammen aus EDFM (10.77 km entfernt).

METAR Code:
2021/03/25 19:50
EDFM 251950Z 29005KT CAVOK 11/04 Q1021

Temperatur: 5,7 °C Niederschlag: - Wind: 2,7 kt (max.: 3,9 kt in Böen)
Temperatur (min.): 5,0 °C Luftdruck: 1021 hPa Windrichtung: 343 °
Temperatur (max.): 6,7 °C Luftfeuchtigkeit: 76 % Bewölkung: 8/8

Flugschulen am Flugplatz Coleman

Am Flugplatz Coleman gibt es leider keine Flugschule.

Benachbarte Flugplätze und Flugschulen

Es gibt 21 weitere Flugplätze in einem Umkreis von 50 km um den Flugplatz Coleman.

Jetzt anmelden

Passwort vergessen

Umfrage Archiv

Seid Ihr aufgrund von Corona im Jahr 2020 mehr oder weniger geflogen als im Jahr zuvor?

weniger
53.3 %
gleich viel
28.9 %
mehr
17.8 %
Stimmen: 180 | Diskussion
Anzeige: Roland Aircraft
Statistik Alle Mitglieder

Aktuell sind 72 Besucher online, davon 1 Mitglied und 71 Gäste.


Mitglieder online:
Chris_EDNC 

Anzeige: VFR Sprechfunk Simulator


Anzeige: Pocket FMS